sensor_id;sensor_type;location;lat;lon;timestamp;temperature;humidity
75170;SHT31;63749;49.186;9.222;2023-05-07T00:00:08;13.55;85.36
75170;SHT31;63749;49.186;9.222;2023-05-07T00:02:34;13.54;85.19
75170;SHT31;63749;49.186;9.222;2023-05-07T00:04:59;13.54;85.29
75170;SHT31;63749;49.186;9.222;2023-05-07T00:07:25;13.54;85.29
75170;SHT31;63749;49.186;9.222;2023-05-07T00:09:50;13.48;85.45
75170;SHT31;63749;49.186;9.222;2023-05-07T00:12:15;13.43;85.49
75170;SHT31;63749;49.186;9.222;2023-05-07T00:14:41;13.37;85.55
75170;SHT31;63749;49.186;9.222;2023-05-07T00:17:07;13.33;85.73
75170;SHT31;63749;49.186;9.222;2023-05-07T00:19:32;13.27;85.77
75170;SHT31;63749;49.186;9.222;2023-05-07T00:24:22;13.24;86.08
75170;SHT31;63749;49.186;9.222;2023-05-07T00:26:48;13.27;86.14
75170;SHT31;63749;49.186;9.222;2023-05-07T00:29:13;13.24;85.95
75170;SHT31;63749;49.186;9.222;2023-05-07T00:31:39;13.23;85.79
75170;SHT31;63749;49.186;9.222;2023-05-07T00:34:04;13.27;85.74
75170;SHT31;63749;49.186;9.222;2023-05-07T00:36:29;13.21;85.81
75170;SHT31;63749;49.186;9.222;2023-05-07T00:38:56;13.18;85.77
75170;SHT31;63749;49.186;9.222;2023-05-07T00:41:23;13.17;85.90
75170;SHT31;63749;49.186;9.222;2023-05-07T00:43:49;13.10;86.02
75170;SHT31;63749;49.186;9.222;2023-05-07T00:46:16;13.07;86.21
75170;SHT31;63749;49.186;9.222;2023-05-07T00:48:42;13.08;86.23
75170;SHT31;63749;49.186;9.222;2023-05-07T00:51:09;13.03;86.29
75170;SHT31;63749;49.186;9.222;2023-05-07T00:53:36;13.08;86.16
75170;SHT31;63749;49.186;9.222;2023-05-07T00:56:01;13.13;85.89
75170;SHT31;63749;49.186;9.222;2023-05-07T00:58:27;13.10;85.83
75170;SHT31;63749;49.186;9.222;2023-05-07T01:00:52;13.13;85.74
75170;SHT31;63749;49.186;9.222;2023-05-07T01:03:18;13.10;85.74
75170;SHT31;63749;49.186;9.222;2023-05-07T01:05:45;13.10;85.63
75170;SHT31;63749;49.186;9.222;2023-05-07T01:08:11;13.08;85.65
75170;SHT31;63749;49.186;9.222;2023-05-07T01:10:37;13.04;85.82
75170;SHT31;63749;49.186;9.222;2023-05-07T01:13:11;13.00;85.91
75170;SHT31;63749;49.186;9.222;2023-05-07T01:15:38;13.00;85.86
75170;SHT31;63749;49.186;9.222;2023-05-07T01:18:03;13.03;85.76
75170;SHT31;63749;49.186;9.222;2023-05-07T01:20:29;13.03;86.27
75170;SHT31;63749;49.186;9.222;2023-05-07T01:22:56;12.99;86.48
75170;SHT31;63749;49.186;9.222;2023-05-07T01:25:22;12.96;86.49
75170;SHT31;63749;49.186;9.222;2023-05-07T01:27:48;12.92;86.33
75170;SHT31;63749;49.186;9.222;2023-05-07T01:30:13;12.89;86.34
75170;SHT31;63749;49.186;9.222;2023-05-07T01:32:53;12.86;86.20
75170;SHT31;63749;49.186;9.222;2023-05-07T01:35:29;12.90;86.10
75170;SHT31;63749;49.186;9.222;2023-05-07T01:37:55;12.87;85.98
75170;SHT31;63749;49.186;9.222;2023-05-07T01:40:22;12.90;85.74
75170;SHT31;63749;49.186;9.222;2023-05-07T01:42:47;12.87;85.72
75170;SHT31;63749;49.186;9.222;2023-05-07T01:45:15;12.85;85.89
75170;SHT31;63749;49.186;9.222;2023-05-07T01:47:42;12.80;86.05
75170;SHT31;63749;49.186;9.222;2023-05-07T01:50:08;12.72;86.24
75170;SHT31;63749;49.186;9.222;2023-05-07T01:52:37;12.70;86.48
75170;SHT31;63749;49.186;9.222;2023-05-07T01:55:03;12.68;86.66
75170;SHT31;63749;49.186;9.222;2023-05-07T01:57:28;12.62;86.59
75170;SHT31;63749;49.186;9.222;2023-05-07T01:59:54;12.63;86.65
75170;SHT31;63749;49.186;9.222;2023-05-07T02:02:19;12.62;86.76
75170;SHT31;63749;49.186;9.222;2023-05-07T02:04:44;12.62;86.61
75170;SHT31;63749;49.186;9.222;2023-05-07T02:07:10;12.62;86.55
75170;SHT31;63749;49.186;9.222;2023-05-07T02:09:35;12.53;86.60
75170;SHT31;63749;49.186;9.222;2023-05-07T02:12:01;12.50;86.87
75170;SHT31;63749;49.186;9.222;2023-05-07T02:14:26;12.46;87.09
75170;SHT31;63749;49.186;9.222;2023-05-07T02:16:51;12.37;87.20
75170;SHT31;63749;49.186;9.222;2023-05-07T02:19:17;12.35;87.47
75170;SHT31;63749;49.186;9.222;2023-05-07T02:21:43;12.35;87.20
75170;SHT31;63749;49.186;9.222;2023-05-07T02:24:08;12.37;87.24
75170;SHT31;63749;49.186;9.222;2023-05-07T02:26:34;12.38;87.28
75170;SHT31;63749;49.186;9.222;2023-05-07T02:28:59;12.37;87.33
75170;SHT31;63749;49.186;9.222;2023-05-07T02:31:25;12.37;87.59
75170;SHT31;63749;49.186;9.222;2023-05-07T02:33:50;12.39;87.51
75170;SHT31;63749;49.186;9.222;2023-05-07T02:36:15;12.32;87.59
75170;SHT31;63749;49.186;9.222;2023-05-07T02:38:40;12.35;87.43
75170;SHT31;63749;49.186;9.222;2023-05-07T02:41:06;12.27;87.54
75170;SHT31;63749;49.186;9.222;2023-05-07T02:43:31;12.20;87.91
75170;SHT31;63749;49.186;9.222;2023-05-07T02:46:04;12.20;88.00
75170;SHT31;63749;49.186;9.222;2023-05-07T02:48:30;12.20;88.12
75170;SHT31;63749;49.186;9.222;2023-05-07T02:50:56;12.22;87.97
75170;SHT31;63749;49.186;9.222;2023-05-07T02:53:21;12.25;87.91
75170;SHT31;63749;49.186;9.222;2023-05-07T02:55:47;12.21;88.31
75170;SHT31;63749;49.186;9.222;2023-05-07T02:58:12;12.16;88.54
75170;SHT31;63749;49.186;9.222;2023-05-07T03:00:37;12.11;88.52
75170;SHT31;63749;49.186;9.222;2023-05-07T03:03:02;12.10;88.39
75170;SHT31;63749;49.186;9.222;2023-05-07T03:05:28;12.08;88.21
75170;SHT31;63749;49.186;9.222;2023-05-07T03:07:53;12.11;88.26
75170;SHT31;63749;49.186;9.222;2023-05-07T03:10:18;12.10;88.24
75170;SHT31;63749;49.186;9.222;2023-05-07T03:12:44;12.04;88.30
75170;SHT31;63749;49.186;9.222;2023-05-07T03:15:10;12.01;88.48
75170;SHT31;63749;49.186;9.222;2023-05-07T03:17:37;11.95;88.73
75170;SHT31;63749;49.186;9.222;2023-05-07T03:20:03;11.94;88.64
75170;SHT31;63749;49.186;9.222;2023-05-07T03:22:28;11.94;88.71
75170;SHT31;63749;49.186;9.222;2023-05-07T03:24:54;11.93;88.66
75170;SHT31;63749;49.186;9.222;2023-05-07T03:27:19;11.93;88.78
75170;SHT31;63749;49.186;9.222;2023-05-07T03:29:44;11.93;88.60
75170;SHT31;63749;49.186;9.222;2023-05-07T03:32:10;11.93;88.60
75170;SHT31;63749;49.186;9.222;2023-05-07T03:34:35;11.97;88.39
75170;SHT31;63749;49.186;9.222;2023-05-07T03:37:00;12.02;88.35
75170;SHT31;63749;49.186;9.222;2023-05-07T03:39:26;12.00;88.26
75170;SHT31;63749;49.186;9.222;2023-05-07T03:41:51;12.02;88.19
75170;SHT31;63749;49.186;9.222;2023-05-07T03:44:16;11.98;88.14
75170;SHT31;63749;49.186;9.222;2023-05-07T03:46:42;11.98;88.15
75170;SHT31;63749;49.186;9.222;2023-05-07T03:49:07;12.01;88.17
75170;SHT31;63749;49.186;9.222;2023-05-07T03:51:33;12.01;87.96
75170;SHT31;63749;49.186;9.222;2023-05-07T03:53:58;12.00;87.88
75170;SHT31;63749;49.186;9.222;2023-05-07T03:56:23;12.04;87.77
75170;SHT31;63749;49.186;9.222;2023-05-07T03:58:51;12.05;87.65
75170;SHT31;63749;49.186;9.222;2023-05-07T04:01:17;12.05;87.60
75170;SHT31;63749;49.186;9.222;2023-05-07T04:03:42;12.07;87.55
75170;SHT31;63749;49.186;9.222;2023-05-07T04:06:07;12.07;87.50
75170;SHT31;63749;49.186;9.222;2023-05-07T04:08:33;12.04;87.56
75170;SHT31;63749;49.186;9.222;2023-05-07T04:10:58;12.01;87.63
75170;SHT31;63749;49.186;9.222;2023-05-07T04:13:24;12.02;87.55
75170;SHT31;63749;49.186;9.222;2023-05-07T04:15:54;12.02;87.61
75170;SHT31;63749;49.186;9.222;2023-05-07T04:18:20;12.05;87.72
75170;SHT31;63749;49.186;9.222;2023-05-07T04:20:46;12.07;87.40
75170;SHT31;63749;49.186;9.222;2023-05-07T04:23:12;12.17;87.22
75170;SHT31;63749;49.186;9.222;2023-05-07T04:25:37;12.21;87.05
75170;SHT31;63749;49.186;9.222;2023-05-07T04:28:03;12.27;86.82
75170;SHT31;63749;49.186;9.222;2023-05-07T04:30:28;12.28;86.62
75170;SHT31;63749;49.186;9.222;2023-05-07T04:32:53;12.32;86.36
75170;SHT31;63749;49.186;9.222;2023-05-07T04:35:19;12.41;85.95
75170;SHT31;63749;49.186;9.222;2023-05-07T04:37:44;12.48;85.89
75170;SHT31;63749;49.186;9.222;2023-05-07T04:40:10;12.46;85.59
75170;SHT31;63749;49.186;9.222;2023-05-07T04:42:35;12.50;85.51
75170;SHT31;63749;49.186;9.222;2023-05-07T04:45:01;12.53;85.42
75170;SHT31;63749;49.186;9.222;2023-05-07T04:47:27;12.62;85.26
75170;SHT31;63749;49.186;9.222;2023-05-07T04:49:52;12.62;84.97
75170;SHT31;63749;49.186;9.222;2023-05-07T04:52:17;12.70;84.82
75170;SHT31;63749;49.186;9.222;2023-05-07T04:54:43;12.80;84.62
75170;SHT31;63749;49.186;9.222;2023-05-07T04:57:08;12.86;84.39
75170;SHT31;63749;49.186;9.222;2023-05-07T04:59:33;12.93;84.15
75170;SHT31;63749;49.186;9.222;2023-05-07T05:01:59;13.04;84.03
75170;SHT31;63749;49.186;9.222;2023-05-07T05:04:24;13.11;83.60
75170;SHT31;63749;49.186;9.222;2023-05-07T05:06:49;13.21;83.29
75170;SHT31;63749;49.186;9.222;2023-05-07T05:09:15;13.26;82.96
75170;SHT31;63749;49.186;9.222;2023-05-07T05:11:41;13.40;82.58
75170;SHT31;63749;49.186;9.222;2023-05-07T05:14:06;13.48;82.26
75170;SHT31;63749;49.186;9.222;2023-05-07T05:16:31;13.58;82.01
75170;SHT31;63749;49.186;9.222;2023-05-07T05:18:57;13.75;81.69
75170;SHT31;63749;49.186;9.222;2023-05-07T05:21:22;13.82;81.10
75170;SHT31;63749;49.186;9.222;2023-05-07T05:23:47;13.98;80.73
75170;SHT31;63749;49.186;9.222;2023-05-07T05:26:13;14.02;80.63
75170;SHT31;63749;49.186;9.222;2023-05-07T05:28:38;13.95;80.02
75170;SHT31;63749;49.186;9.222;2023-05-07T05:31:04;14.01;79.93
75170;SHT31;63749;49.186;9.222;2023-05-07T05:33:30;14.12;79.77
75170;SHT31;63749;49.186;9.222;2023-05-07T05:35:55;14.17;79.24
75170;SHT31;63749;49.186;9.222;2023-05-07T05:38:20;14.13;79.06
75170;SHT31;63749;49.186;9.222;2023-05-07T05:40:46;14.23;78.52
75170;SHT31;63749;49.186;9.222;2023-05-07T05:43:12;14.36;78.23
75170;SHT31;63749;49.186;9.222;2023-05-07T05:45:37;14.46;78.07
75170;SHT31;63749;49.186;9.222;2023-05-07T05:48:02;14.47;77.77
75170;SHT31;63749;49.186;9.222;2023-05-07T05:50:28;14.50;77.77
75170;SHT31;63749;49.186;9.222;2023-05-07T05:52:53;14.54;77.73
75170;SHT31;63749;49.186;9.222;2023-05-07T05:55:19;14.63;77.62
75170;SHT31;63749;49.186;9.222;2023-05-07T05:57:45;14.70;76.86
75170;SHT31;63749;49.186;9.222;2023-05-07T06:00:10;14.80;76.61
75170;SHT31;63749;49.186;9.222;2023-05-07T06:02:36;14.94;76.16
75170;SHT31;63749;49.186;9.222;2023-05-07T06:05:02;15.01;76.28
75170;SHT31;63749;49.186;9.222;2023-05-07T06:07:27;15.06;75.79
75170;SHT31;63749;49.186;9.222;2023-05-07T06:09:53;15.09;75.47
75170;SHT31;63749;49.186;9.222;2023-05-07T06:12:18;15.28;75.21
75170;SHT31;63749;49.186;9.222;2023-05-07T06:14:43;15.31;74.78
75170;SHT31;63749;49.186;9.222;2023-05-07T06:17:09;15.60;74.13
75170;SHT31;63749;49.186;9.222;2023-05-07T06:19:34;15.80;73.42
75170;SHT31;63749;49.186;9.222;2023-05-07T06:22:00;15.97;72.59
75170;SHT31;63749;49.186;9.222;2023-05-07T06:24:27;16.17;72.96
75170;SHT31;63749;49.186;9.222;2023-05-07T06:26:52;16.17;72.38
75170;SHT31;63749;49.186;9.222;2023-05-07T06:29:18;16.38;72.01
75170;SHT31;63749;49.186;9.222;2023-05-07T06:31:43;16.48;71.60
75170;SHT31;63749;49.186;9.222;2023-05-07T06:34:08;16.66;70.70
75170;SHT31;63749;49.186;9.222;2023-05-07T06:36:34;17.00;70.49
75170;SHT31;63749;49.186;9.222;2023-05-07T06:39:00;16.99;69.58
75170;SHT31;63749;49.186;9.222;2023-05-07T06:41:25;16.93;69.49
75170;SHT31;63749;49.186;9.222;2023-05-07T06:43:51;17.06;68.90
75170;SHT31;63749;49.186;9.222;2023-05-07T06:46:16;17.20;68.74
75170;SHT31;63749;49.186;9.222;2023-05-07T06:48:41;17.06;68.85
75170;SHT31;63749;49.186;9.222;2023-05-07T06:51:07;17.16;69.16
75170;SHT31;63749;49.186;9.222;2023-05-07T06:53:32;17.14;68.83
75170;SHT31;63749;49.186;9.222;2023-05-07T06:55:57;17.30;68.70
75170;SHT31;63749;49.186;9.222;2023-05-07T06:58:23;17.37;68.62
75170;SHT31;63749;49.186;9.222;2023-05-07T07:00:48;17.38;68.59
75170;SHT31;63749;49.186;9.222;2023-05-07T07:03:14;17.60;68.33
75170;SHT31;63749;49.186;9.222;2023-05-07T07:05:42;17.69;68.20
75170;SHT31;63749;49.186;9.222;2023-05-07T07:08:08;17.93;68.11
75170;SHT31;63749;49.186;9.222;2023-05-07T07:10:33;18.20;66.58
75170;SHT31;63749;49.186;9.222;2023-05-07T07:12:58;18.30;66.62
75170;SHT31;63749;49.186;9.222;2023-05-07T07:15:24;18.56;66.56
75170;SHT31;63749;49.186;9.222;2023-05-07T07:17:50;18.72;67.15
75170;SHT31;63749;49.186;9.222;2023-05-07T07:20:16;18.72;65.47
75170;SHT31;63749;49.186;9.222;2023-05-07T07:22:41;18.80;65.34
75170;SHT31;63749;49.186;9.222;2023-05-07T07:25:07;18.67;65.94
75170;SHT31;63749;49.186;9.222;2023-05-07T07:27:32;18.75;65.60
75170;SHT31;63749;49.186;9.222;2023-05-07T07:29:58;18.63;66.08
75170;SHT31;63749;49.186;9.222;2023-05-07T07:32:25;18.67;66.22
75170;SHT31;63749;49.186;9.222;2023-05-07T07:34:51;18.81;65.76
75170;SHT31;63749;49.186;9.222;2023-05-07T07:37:16;19.02;64.57
75170;SHT31;63749;49.186;9.222;2023-05-07T07:39:41;19.32;64.14
75170;SHT31;63749;49.186;9.222;2023-05-07T07:42:07;19.43;63.58
75170;SHT31;63749;49.186;9.222;2023-05-07T07:44:32;19.60;63.71
75170;SHT31;63749;49.186;9.222;2023-05-07T07:46:58;19.46;63.73
75170;SHT31;63749;49.186;9.222;2023-05-07T07:49:23;19.77;62.70
75170;SHT31;63749;49.186;9.222;2023-05-07T07:51:48;19.86;62.22
75170;SHT31;63749;49.186;9.222;2023-05-07T07:54:14;19.90;63.47
75170;SHT31;63749;49.186;9.222;2023-05-07T07:56:39;19.66;63.79
75170;SHT31;63749;49.186;9.222;2023-05-07T07:59:04;19.47;64.44
75170;SHT31;63749;49.186;9.222;2023-05-07T08:01:30;19.60;64.00
75170;SHT31;63749;49.186;9.222;2023-05-07T08:03:55;19.67;63.79
75170;SHT31;63749;49.186;9.222;2023-05-07T08:06:23;20.15;63.47
75170;SHT31;63749;49.186;9.222;2023-05-07T08:08:48;20.31;62.57
75170;SHT31;63749;49.186;9.222;2023-05-07T08:11:14;20.35;62.22
75170;SHT31;63749;49.186;9.222;2023-05-07T08:13:39;20.49;62.31
75170;SHT31;63749;49.186;9.222;2023-05-07T08:16:05;20.49;62.17
75170;SHT31;63749;49.186;9.222;2023-05-07T08:18:30;20.49;62.19
75170;SHT31;63749;49.186;9.222;2023-05-07T08:20:55;20.29;62.58
75170;SHT31;63749;49.186;9.222;2023-05-07T08:23:21;20.48;62.20
75170;SHT31;63749;49.186;9.222;2023-05-07T08:25:47;20.39;62.68
75170;SHT31;63749;49.186;9.222;2023-05-07T08:28:13;20.68;62.10
75170;SHT31;63749;49.186;9.222;2023-05-07T08:30:38;21.04;61.47
75170;SHT31;63749;49.186;9.222;2023-05-07T08:33:03;21.55;61.00
75170;SHT31;63749;49.186;9.222;2023-05-07T08:35:29;21.74;59.33
75170;SHT31;63749;49.186;9.222;2023-05-07T08:37:54;21.45;59.75
75170;SHT31;63749;49.186;9.222;2023-05-07T08:40:25;21.40;61.03
75170;SHT31;63749;49.186;9.222;2023-05-07T08:42:52;21.50;60.63
75170;SHT31;63749;49.186;9.222;2023-05-07T08:45:19;21.74;60.31
75170;SHT31;63749;49.186;9.222;2023-05-07T08:47:47;21.65;59.99
75170;SHT31;63749;49.186;9.222;2023-05-07T08:50:12;21.82;58.73
75170;SHT31;63749;49.186;9.222;2023-05-07T08:52:39;21.98;58.68
75170;SHT31;63749;49.186;9.222;2023-05-07T08:55:06;22.03;57.89
75170;SHT31;63749;49.186;9.222;2023-05-07T08:57:32;22.03;58.27
75170;SHT31;63749;49.186;9.222;2023-05-07T08:59:57;21.99;57.93
75170;SHT31;63749;49.186;9.222;2023-05-07T09:02:22;21.99;58.63
75170;SHT31;63749;49.186;9.222;2023-05-07T09:04:48;22.28;58.27
75170;SHT31;63749;49.186;9.222;2023-05-07T09:07:14;22.23;57.93
75170;SHT31;63749;49.186;9.222;2023-05-07T09:09:39;22.54;57.00
75170;SHT31;63749;49.186;9.222;2023-05-07T09:12:04;22.87;56.70
75170;SHT31;63749;49.186;9.222;2023-05-07T09:14:30;22.83;56.00
75170;SHT31;63749;49.186;9.222;2023-05-07T09:16:56;22.70;56.86
75170;SHT31;63749;49.186;9.222;2023-05-07T09:19:26;22.98;55.72
75170;SHT31;63749;49.186;9.222;2023-05-07T09:22:01;22.77;56.23
75170;SHT31;63749;49.186;9.222;2023-05-07T09:24:27;22.56;55.57
75170;SHT31;63749;49.186;9.222;2023-05-07T09:26:57;22.81;55.94
75170;SHT31;63749;49.186;9.222;2023-05-07T09:29:23;22.71;55.28
75170;SHT31;63749;49.186;9.222;2023-05-07T09:31:48;22.95;55.07
75170;SHT31;63749;49.186;9.222;2023-05-07T09:34:13;23.29;54.50
75170;SHT31;63749;49.186;9.222;2023-05-07T09:36:39;23.23;54.96
75170;SHT31;63749;49.186;9.222;2023-05-07T09:39:04;23.19;54.85
75170;SHT31;63749;49.186;9.222;2023-05-07T09:41:30;23.42;54.67
75170;SHT31;63749;49.186;9.222;2023-05-07T09:43:57;23.58;54.18
75170;SHT31;63749;49.186;9.222;2023-05-07T09:46:30;23.76;53.54
75170;SHT31;63749;49.186;9.222;2023-05-07T09:49:02;23.63;53.32
75170;SHT31;63749;49.186;9.222;2023-05-07T09:51:39;23.83;52.37
75170;SHT31;63749;49.186;9.222;2023-05-07T09:54:06;23.97;52.27
75170;SHT31;63749;49.186;9.222;2023-05-07T09:56:32;24.22;52.18
75170;SHT31;63749;49.186;9.222;2023-05-07T09:59:00;24.28;52.22
75170;SHT31;63749;49.186;9.222;2023-05-07T10:01:26;24.21;49.87
75170;SHT31;63749;49.186;9.222;2023-05-07T10:03:52;24.20;50.06
75170;SHT31;63749;49.186;9.222;2023-05-07T10:06:19;24.27;50.94
75170;SHT31;63749;49.186;9.222;2023-05-07T10:08:45;24.37;49.61
75170;SHT31;63749;49.186;9.222;2023-05-07T10:11:11;24.48;48.10
75170;SHT31;63749;49.186;9.222;2023-05-07T10:13:37;24.64;48.72
75170;SHT31;63749;49.186;9.222;2023-05-07T10:16:04;24.75;49.21
75170;SHT31;63749;49.186;9.222;2023-05-07T10:18:33;24.72;47.24
75170;SHT31;63749;49.186;9.222;2023-05-07T10:21:07;24.92;46.31
75170;SHT31;63749;49.186;9.222;2023-05-07T10:23:33;24.82;47.24
75170;SHT31;63749;49.186;9.222;2023-05-07T10:26:02;24.80;46.88
75170;SHT31;63749;49.186;9.222;2023-05-07T10:28:29;25.02;46.13
75170;SHT31;63749;49.186;9.222;2023-05-07T10:33:40;24.99;46.48
75170;SHT31;63749;49.186;9.222;2023-05-07T10:36:06;25.33;46.47
75170;SHT31;63749;49.186;9.222;2023-05-07T10:38:33;25.38;45.76
75170;SHT31;63749;49.186;9.222;2023-05-07T10:40:58;25.34;45.97
75170;SHT31;63749;49.186;9.222;2023-05-07T10:43:24;25.22;46.58
75170;SHT31;63749;49.186;9.222;2023-05-07T10:46:15;25.34;45.46
75170;SHT31;63749;49.186;9.222;2023-05-07T10:49:07;25.13;45.80
75170;SHT31;63749;49.186;9.222;2023-05-07T10:51:33;25.43;46.52
75170;SHT31;63749;49.186;9.222;2023-05-07T10:56:42;25.74;44.81
75170;SHT31;63749;49.186;9.222;2023-05-07T11:02:01;25.57;43.90
75170;SHT31;63749;49.186;9.222;2023-05-07T11:04:31;25.98;43.10
75170;SHT31;63749;49.186;9.222;2023-05-07T11:15:03;26.35;41.73
75170;SHT31;63749;49.186;9.222;2023-05-07T11:17:29;26.33;42.51
75170;SHT31;63749;49.186;9.222;2023-05-07T11:19:57;25.95;43.12
75170;SHT31;63749;49.186;9.222;2023-05-07T11:25:01;26.22;42.69
75170;SHT31;63749;49.186;9.222;2023-05-07T11:27:27;26.21;42.46
75170;SHT31;63749;49.186;9.222;2023-05-07T11:29:52;25.96;42.33
75170;SHT31;63749;49.186;9.222;2023-05-07T11:32:31;25.63;43.28
75170;SHT31;63749;49.186;9.222;2023-05-07T11:34:58;25.53;43.52
75170;SHT31;63749;49.186;9.222;2023-05-07T11:37:24;25.80;42.94
75170;SHT31;63749;49.186;9.222;2023-05-07T11:40:03;26.15;41.84
75170;SHT31;63749;49.186;9.222;2023-05-07T11:42:37;26.39;42.41
75170;SHT31;63749;49.186;9.222;2023-05-07T11:45:03;26.59;41.56
75170;SHT31;63749;49.186;9.222;2023-05-07T11:47:32;27.24;40.99
75170;SHT31;63749;49.186;9.222;2023-05-07T11:50:03;27.56;39.71
75170;SHT31;63749;49.186;9.222;2023-05-07T11:52:28;27.28;40.09
75170;SHT31;63749;49.186;9.222;2023-05-07T11:54:58;27.27;39.71
75170;SHT31;63749;49.186;9.222;2023-05-07T11:57:25;27.15;39.08
75170;SHT31;63749;49.186;9.222;2023-05-07T11:59:58;27.21;39.68
75170;SHT31;63749;49.186;9.222;2023-05-07T12:02:25;28.00;40.74
75170;SHT31;63749;49.186;9.222;2023-05-07T12:04:51;27.97;39.06
75170;SHT31;63749;49.186;9.222;2023-05-07T12:07:17;28.25;39.54
75170;SHT31;63749;49.186;9.222;2023-05-07T12:09:44;28.02;38.04
75170;SHT31;63749;49.186;9.222;2023-05-07T12:12:09;27.69;39.26
75170;SHT31;63749;49.186;9.222;2023-05-07T12:14:42;27.32;39.13
75170;SHT31;63749;49.186;9.222;2023-05-07T12:17:09;27.52;38.78
75170;SHT31;63749;49.186;9.222;2023-05-07T12:19:39;27.48;38.64
75170;SHT31;63749;49.186;9.222;2023-05-07T12:22:07;27.83;39.68
75170;SHT31;63749;49.186;9.222;2023-05-07T12:25:02;27.65;38.54
75170;SHT31;63749;49.186;9.222;2023-05-07T12:27:28;27.83;38.47
75170;SHT31;63749;49.186;9.222;2023-05-07T12:29:53;27.45;38.91
75170;SHT31;63749;49.186;9.222;2023-05-07T12:32:20;27.72;39.25
75170;SHT31;63749;49.186;9.222;2023-05-07T12:34:49;28.48;38.35
75170;SHT31;63749;49.186;9.222;2023-05-07T12:37:15;29.37;37.38
75170;SHT31;63749;49.186;9.222;2023-05-07T12:40:06;29.15;35.40
75170;SHT31;63749;49.186;9.222;2023-05-07T12:42:39;30.09;34.91
75170;SHT31;63749;49.186;9.222;2023-05-07T12:45:11;30.14;33.86
75170;SHT31;63749;49.186;9.222;2023-05-07T12:47:37;30.93;34.64
75170;SHT31;63749;49.186;9.222;2023-05-07T12:50:05;30.76;33.57
75170;SHT31;63749;49.186;9.222;2023-05-07T12:52:31;30.43;34.21
75170;SHT31;63749;49.186;9.222;2023-05-07T12:54:56;30.83;33.05
75170;SHT31;63749;49.186;9.222;2023-05-07T12:57:29;31.21;33.81
75170;SHT31;63749;49.186;9.222;2023-05-07T12:59:57;30.48;33.50
75170;SHT31;63749;49.186;9.222;2023-05-07T13:02:32;29.40;35.65
75170;SHT31;63749;49.186;9.222;2023-05-07T13:04:57;29.08;35.95
75170;SHT31;63749;49.186;9.222;2023-05-07T13:07:24;28.25;36.90
75170;SHT31;63749;49.186;9.222;2023-05-07T13:09:50;27.42;38.23
75170;SHT31;63749;49.186;9.222;2023-05-07T13:12:15;27.38;38.29
75170;SHT31;63749;49.186;9.222;2023-05-07T13:14:41;27.22;39.79
75170;SHT31;63749;49.186;9.222;2023-05-07T13:17:06;26.98;39.25
75170;SHT31;63749;49.186;9.222;2023-05-07T13:19:31;26.79;39.34
75170;SHT31;63749;49.186;9.222;2023-05-07T13:21:57;26.69;39.93
75170;SHT31;63749;49.186;9.222;2023-05-07T13:24:22;26.29;40.03
75170;SHT31;63749;49.186;9.222;2023-05-07T13:26:47;26.52;40.44
75170;SHT31;63749;49.186;9.222;2023-05-07T13:29:13;26.33;40.38
75170;SHT31;63749;49.186;9.222;2023-05-07T13:31:38;26.33;40.70
75170;SHT31;63749;49.186;9.222;2023-05-07T13:34:07;26.16;40.80
75170;SHT31;63749;49.186;9.222;2023-05-07T13:36:33;26.02;42.14
75170;SHT31;63749;49.186;9.222;2023-05-07T13:39:05;25.88;41.79
75170;SHT31;63749;49.186;9.222;2023-05-07T13:41:31;26.01;42.01
75170;SHT31;63749;49.186;9.222;2023-05-07T13:43:56;25.98;41.86
75170;SHT31;63749;49.186;9.222;2023-05-07T13:46:22;26.14;42.09
75170;SHT31;63749;49.186;9.222;2023-05-07T13:48:47;25.96;42.52
75170;SHT31;63749;49.186;9.222;2023-05-07T13:51:12;25.71;42.08
75170;SHT31;63749;49.186;9.222;2023-05-07T13:53:38;25.53;42.50
75170;SHT31;63749;49.186;9.222;2023-05-07T13:56:03;25.53;42.59
75170;SHT31;63749;49.186;9.222;2023-05-07T13:58:30;25.48;43.01
75170;SHT31;63749;49.186;9.222;2023-05-07T14:00:55;25.20;43.44
75170;SHT31;63749;49.186;9.222;2023-05-07T14:03:20;24.89;44.17
75170;SHT31;63749;49.186;9.222;2023-05-07T14:05:46;24.58;44.60
75170;SHT31;63749;49.186;9.222;2023-05-07T14:08:11;24.45;44.94
75170;SHT31;63749;49.186;9.222;2023-05-07T14:10:39;24.38;45.86
75170;SHT31;63749;49.186;9.222;2023-05-07T14:13:05;24.27;46.31
75170;SHT31;63749;49.186;9.222;2023-05-07T14:15:30;24.00;46.96
75170;SHT31;63749;49.186;9.222;2023-05-07T14:17:57;23.70;48.86
75170;SHT31;63749;49.186;9.222;2023-05-07T14:20:24;23.35;48.78
75170;SHT31;63749;49.186;9.222;2023-05-07T14:22:49;23.12;50.64
75170;SHT31;63749;49.186;9.222;2023-05-07T14:25:15;22.19;56.72
75170;SHT31;63749;49.186;9.222;2023-05-07T14:27:40;21.61;60.48
75170;SHT31;63749;49.186;9.222;2023-05-07T14:30:06;21.40;62.55
75170;SHT31;63749;49.186;9.222;2023-05-07T14:32:33;20.99;66.03
75170;SHT31;63749;49.186;9.222;2023-05-07T14:34:58;20.46;69.66
75170;SHT31;63749;49.186;9.222;2023-05-07T14:37:23;19.81;72.44
75170;SHT31;63749;49.186;9.222;2023-05-07T14:39:49;19.35;73.88
75170;SHT31;63749;49.186;9.222;2023-05-07T14:42:14;18.99;75.71
75170;SHT31;63749;49.186;9.222;2023-05-07T14:44:40;18.71;77.47
75170;SHT31;63749;49.186;9.222;2023-05-07T14:47:09;18.63;77.83
75170;SHT31;63749;49.186;9.222;2023-05-07T14:49:35;18.32;79.43
75170;SHT31;63749;49.186;9.222;2023-05-07T14:52:00;18.26;79.82
75170;SHT31;63749;49.186;9.222;2023-05-07T14:54:26;18.14;81.25
75170;SHT31;63749;49.186;9.222;2023-05-07T14:56:51;17.72;83.38
75170;SHT31;63749;49.186;9.222;2023-05-07T14:59:18;17.58;82.22
75170;SHT31;63749;49.186;9.222;2023-05-07T15:01:46;17.37;84.07
75170;SHT31;63749;49.186;9.222;2023-05-07T15:04:12;17.24;83.36
75170;SHT31;63749;49.186;9.222;2023-05-07T15:06:37;17.24;82.98
75170;SHT31;63749;49.186;9.222;2023-05-07T15:09:02;17.11;83.47
75170;SHT31;63749;49.186;9.222;2023-05-07T15:11:28;16.97;85.12
75170;SHT31;63749;49.186;9.222;2023-05-07T15:13:53;16.83;86.53
75170;SHT31;63749;49.186;9.222;2023-05-07T15:16:19;16.75;87.97
75170;SHT31;63749;49.186;9.222;2023-05-07T15:18:45;16.77;89.00
75170;SHT31;63749;49.186;9.222;2023-05-07T15:21:10;16.80;89.12
75170;SHT31;63749;49.186;9.222;2023-05-07T15:23:36;16.76;89.37
75170;SHT31;63749;49.186;9.222;2023-05-07T15:26:01;16.66;90.44
75170;SHT31;63749;49.186;9.222;2023-05-07T15:28:27;16.53;91.01
75170;SHT31;63749;49.186;9.222;2023-05-07T15:30:54;16.47;91.21
75170;SHT31;63749;49.186;9.222;2023-05-07T15:33:19;16.38;91.44
75170;SHT31;63749;49.186;9.222;2023-05-07T15:35:45;16.29;92.58
75170;SHT31;63749;49.186;9.222;2023-05-07T15:38:10;16.25;92.39
75170;SHT31;63749;49.186;9.222;2023-05-07T15:40:36;16.20;93.31
75170;SHT31;63749;49.186;9.222;2023-05-07T15:43:07;16.18;93.32
75170;SHT31;63749;49.186;9.222;2023-05-07T15:45:32;16.14;93.78